sensor_id;sensor_type;location;lat;lon;timestamp;temperature;humidity
48454;DHT22;34261;55.678;12.464;2022-10-15T00:01:23;14.70;99.90
48454;DHT22;34261;55.678;12.464;2022-10-15T00:03:49;14.70;99.90
48454;DHT22;34261;55.678;12.464;2022-10-15T00:06:16;14.80;99.90
48454;DHT22;34261;55.678;12.464;2022-10-15T00:08:42;14.80;99.90
48454;DHT22;34261;55.678;12.464;2022-10-15T00:11:09;14.70;99.90
48454;DHT22;34261;55.678;12.464;2022-10-15T00:13:35;14.80;99.90
48454;DHT22;34261;55.678;12.464;2022-10-15T00:16:01;14.80;99.90
48454;DHT22;34261;55.678;12.464;2022-10-15T00:18:27;14.80;99.90
48454;DHT22;34261;55.678;12.464;2022-10-15T00:20:53;14.80;99.90
48454;DHT22;34261;55.678;12.464;2022-10-15T00:23:18;14.80;99.90
48454;DHT22;34261;55.678;12.464;2022-10-15T00:25:44;14.80;99.90
48454;DHT22;34261;55.678;12.464;2022-10-15T00:28:09;14.90;99.90
48454;DHT22;34261;55.678;12.464;2022-10-15T00:30:36;14.80;99.90
48454;DHT22;34261;55.678;12.464;2022-10-15T00:33:01;14.90;99.90
48454;DHT22;34261;55.678;12.464;2022-10-15T00:35:26;14.90;99.90
48454;DHT22;34261;55.678;12.464;2022-10-15T00:37:52;14.90;99.90
48454;DHT22;34261;55.678;12.464;2022-10-15T00:40:17;14.90;99.90
48454;DHT22;34261;55.678;12.464;2022-10-15T00:42:44;14.90;99.90
48454;DHT22;34261;55.678;12.464;2022-10-15T00:45:11;14.90;99.90
48454;DHT22;34261;55.678;12.464;2022-10-15T00:47:41;14.90;99.90
48454;DHT22;34261;55.678;12.464;2022-10-15T00:50:16;14.90;99.90
48454;DHT22;34261;55.678;12.464;2022-10-15T00:55:18;14.90;99.90
48454;DHT22;34261;55.678;12.464;2022-10-15T00:57:47;15.00;99.90
48454;DHT22;34261;55.678;12.464;2022-10-15T01:00:14;15.00;99.90
48454;DHT22;34261;55.678;12.464;2022-10-15T01:02:41;15.00;99.90
48454;DHT22;34261;55.678;12.464;2022-10-15T01:05:07;15.00;99.90
48454;DHT22;34261;55.678;12.464;2022-10-15T01:07:32;15.00;99.90
48454;DHT22;34261;55.678;12.464;2022-10-15T01:09:58;15.00;99.90
48454;DHT22;34261;55.678;12.464;2022-10-15T01:12:32;15.00;99.90
48454;DHT22;34261;55.678;12.464;2022-10-15T01:17:49;15.00;99.90
48454;DHT22;34261;55.678;12.464;2022-10-15T01:31:34;14.90;99.90
48454;DHT22;34261;55.678;12.464;2022-10-15T01:39:28;14.90;99.90
48454;DHT22;34261;55.678;12.464;2022-10-15T01:42:00;14.90;99.90
48454;DHT22;34261;55.678;12.464;2022-10-15T01:44:30;14.90;99.90
48454;DHT22;34261;55.678;12.464;2022-10-15T01:49:27;14.90;99.90
48454;DHT22;34261;55.678;12.464;2022-10-15T01:51:54;14.80;99.90
48454;DHT22;34261;55.678;12.464;2022-10-15T01:54:22;14.80;99.90
48454;DHT22;34261;55.678;12.464;2022-10-15T01:56:48;14.80;99.90
48454;DHT22;34261;55.678;12.464;2022-10-15T01:59:21;14.80;99.90
48454;DHT22;34261;55.678;12.464;2022-10-15T02:01:48;14.70;99.90
48454;DHT22;34261;55.678;12.464;2022-10-15T02:04:26;14.80;99.90
48454;DHT22;34261;55.678;12.464;2022-10-15T02:07:04;14.80;99.90
48454;DHT22;34261;55.678;12.464;2022-10-15T02:09:51;14.70;99.90
48454;DHT22;34261;55.678;12.464;2022-10-15T02:15:02;14.70;99.90
48454;DHT22;34261;55.678;12.464;2022-10-15T02:17:31;14.70;99.90
48454;DHT22;34261;55.678;12.464;2022-10-15T02:20:00;14.80;99.90
48454;DHT22;34261;55.678;12.464;2022-10-15T02:22:34;14.80;99.90
48454;DHT22;34261;55.678;12.464;2022-10-15T02:25:02;14.80;99.90
48454;DHT22;34261;55.678;12.464;2022-10-15T02:27:30;14.80;99.90
48454;DHT22;34261;55.678;12.464;2022-10-15T02:29:55;14.80;99.90
48454;DHT22;34261;55.678;12.464;2022-10-15T02:32:21;14.80;99.90
48454;DHT22;34261;55.678;12.464;2022-10-15T02:34:48;14.90;99.90
48454;DHT22;34261;55.678;12.464;2022-10-15T02:37:14;14.90;99.90
48454;DHT22;34261;55.678;12.464;2022-10-15T02:39:43;14.90;99.90
48454;DHT22;34261;55.678;12.464;2022-10-15T02:42:08;14.90;99.90
48454;DHT22;34261;55.678;12.464;2022-10-15T02:44:34;14.90;99.90
48454;DHT22;34261;55.678;12.464;2022-10-15T02:46:59;14.90;99.90
48454;DHT22;34261;55.678;12.464;2022-10-15T02:49:25;14.90;99.90
48454;DHT22;34261;55.678;12.464;2022-10-15T02:51:50;14.90;99.90
48454;DHT22;34261;55.678;12.464;2022-10-15T02:54:16;15.00;99.90
48454;DHT22;34261;55.678;12.464;2022-10-15T02:56:41;15.00;99.90
48454;DHT22;34261;55.678;12.464;2022-10-15T02:59:07;14.90;99.90
48454;DHT22;34261;55.678;12.464;2022-10-15T03:01:33;14.90;99.90
48454;DHT22;34261;55.678;12.464;2022-10-15T03:03:58;14.90;99.90
48454;DHT22;34261;55.678;12.464;2022-10-15T03:06:25;14.80;99.90
48454;DHT22;34261;55.678;12.464;2022-10-15T03:08:50;14.80;99.90
48454;DHT22;34261;55.678;12.464;2022-10-15T03:11:15;14.80;99.90
48454;DHT22;34261;55.678;12.464;2022-10-15T03:13:41;14.70;99.90
48454;DHT22;34261;55.678;12.464;2022-10-15T03:16:07;14.70;99.90
48454;DHT22;34261;55.678;12.464;2022-10-15T03:18:33;14.70;99.90
48454;DHT22;34261;55.678;12.464;2022-10-15T03:20:58;14.80;99.90
48454;DHT22;34261;55.678;12.464;2022-10-15T03:23:26;14.80;99.90
48454;DHT22;34261;55.678;12.464;2022-10-15T03:25:51;14.70;99.90
48454;DHT22;34261;55.678;12.464;2022-10-15T03:28:18;14.70;99.90
48454;DHT22;34261;55.678;12.464;2022-10-15T03:30:44;14.70;99.90
48454;DHT22;34261;55.678;12.464;2022-10-15T03:33:09;14.70;99.90
48454;DHT22;34261;55.678;12.464;2022-10-15T03:35:35;14.70;99.90
48454;DHT22;34261;55.678;12.464;2022-10-15T03:38:00;14.70;99.90
48454;DHT22;34261;55.678;12.464;2022-10-15T03:40:26;14.60;99.90
48454;DHT22;34261;55.678;12.464;2022-10-15T03:42:51;14.70;99.90
48454;DHT22;34261;55.678;12.464;2022-10-15T03:45:17;14.60;99.90
48454;DHT22;34261;55.678;12.464;2022-10-15T03:47:43;14.60;99.90
48454;DHT22;34261;55.678;12.464;2022-10-15T03:50:08;14.60;99.90
48454;DHT22;34261;55.678;12.464;2022-10-15T03:52:35;14.60;99.90
48454;DHT22;34261;55.678;12.464;2022-10-15T03:55:01;14.60;99.90
48454;DHT22;34261;55.678;12.464;2022-10-15T03:57:26;14.60;99.90
48454;DHT22;34261;55.678;12.464;2022-10-15T03:59:51;14.60;99.90
48454;DHT22;34261;55.678;12.464;2022-10-15T04:02:17;14.60;99.90
48454;DHT22;34261;55.678;12.464;2022-10-15T04:04:42;14.60;99.90
48454;DHT22;34261;55.678;12.464;2022-10-15T04:07:08;14.60;99.90
48454;DHT22;34261;55.678;12.464;2022-10-15T04:09:33;14.60;99.90
48454;DHT22;34261;55.678;12.464;2022-10-15T04:11:59;14.60;99.90
48454;DHT22;34261;55.678;12.464;2022-10-15T04:14:24;14.60;99.90
48454;DHT22;34261;55.678;12.464;2022-10-15T04:16:50;14.70;99.90
48454;DHT22;34261;55.678;12.464;2022-10-15T04:19:15;14.70;99.90
48454;DHT22;34261;55.678;12.464;2022-10-15T04:21:41;14.70;99.90
48454;DHT22;34261;55.678;12.464;2022-10-15T04:24:07;14.70;99.90
48454;DHT22;34261;55.678;12.464;2022-10-15T04:26:33;14.60;99.90
48454;DHT22;34261;55.678;12.464;2022-10-15T04:28:58;14.60;99.90
48454;DHT22;34261;55.678;12.464;2022-10-15T04:31:23;14.70;99.90
48454;DHT22;34261;55.678;12.464;2022-10-15T04:33:50;14.70;99.90
48454;DHT22;34261;55.678;12.464;2022-10-15T04:36:15;14.70;99.90
48454;DHT22;34261;55.678;12.464;2022-10-15T04:38:41;14.70;99.90
48454;DHT22;34261;55.678;12.464;2022-10-15T04:41:09;14.70;99.90
48454;DHT22;34261;55.678;12.464;2022-10-15T04:43:35;14.70;99.90
48454;DHT22;34261;55.678;12.464;2022-10-15T04:46:02;14.80;99.90
48454;DHT22;34261;55.678;12.464;2022-10-15T04:48:28;14.80;99.90
48454;DHT22;34261;55.678;12.464;2022-10-15T04:50:58;14.70;99.90
48454;DHT22;34261;55.678;12.464;2022-10-15T04:53:26;14.70;99.90
48454;DHT22;34261;55.678;12.464;2022-10-15T04:55:52;14.80;99.90
48454;DHT22;34261;55.678;12.464;2022-10-15T04:58:17;14.80;99.90
48454;DHT22;34261;55.678;12.464;2022-10-15T05:00:43;14.80;99.90
48454;DHT22;34261;55.678;12.464;2022-10-15T05:03:08;14.80;99.90
48454;DHT22;34261;55.678;12.464;2022-10-15T05:05:33;14.80;99.90
48454;DHT22;34261;55.678;12.464;2022-10-15T05:07:59;14.80;99.90
48454;DHT22;34261;55.678;12.464;2022-10-15T05:10:25;14.80;99.90
48454;DHT22;34261;55.678;12.464;2022-10-15T05:12:51;14.80;99.90
48454;DHT22;34261;55.678;12.464;2022-10-15T05:15:16;14.80;99.90
48454;DHT22;34261;55.678;12.464;2022-10-15T05:17:42;14.80;99.90
48454;DHT22;34261;55.678;12.464;2022-10-15T05:20:07;14.80;99.90
48454;DHT22;34261;55.678;12.464;2022-10-15T05:22:33;14.80;99.90
48454;DHT22;34261;55.678;12.464;2022-10-15T05:24:58;14.80;99.90
48454;DHT22;34261;55.678;12.464;2022-10-15T05:27:24;14.90;99.90
48454;DHT22;34261;55.678;12.464;2022-10-15T05:29:49;14.80;99.90
48454;DHT22;34261;55.678;12.464;2022-10-15T05:32:15;14.80;99.90
48454;DHT22;34261;55.678;12.464;2022-10-15T05:34:40;14.90;99.90
48454;DHT22;34261;55.678;12.464;2022-10-15T05:37:06;14.90;99.90
48454;DHT22;34261;55.678;12.464;2022-10-15T05:39:31;14.90;99.90
48454;DHT22;34261;55.678;12.464;2022-10-15T05:41:59;14.80;99.90
48454;DHT22;34261;55.678;12.464;2022-10-15T05:44:25;14.90;99.90
48454;DHT22;34261;55.678;12.464;2022-10-15T05:46:50;14.80;99.90
48454;DHT22;34261;55.678;12.464;2022-10-15T05:49:16;14.80;99.90
48454;DHT22;34261;55.678;12.464;2022-10-15T05:51:43;14.80;99.90
48454;DHT22;34261;55.678;12.464;2022-10-15T05:54:09;14.80;99.90
48454;DHT22;34261;55.678;12.464;2022-10-15T05:56:34;14.70;99.90
48454;DHT22;34261;55.678;12.464;2022-10-15T05:59:00;14.70;99.90
48454;DHT22;34261;55.678;12.464;2022-10-15T06:01:25;14.70;99.90
48454;DHT22;34261;55.678;12.464;2022-10-15T06:03:50;14.70;99.90
48454;DHT22;34261;55.678;12.464;2022-10-15T06:06:20;14.70;99.90
48454;DHT22;34261;55.678;12.464;2022-10-15T06:08:46;14.70;99.90
48454;DHT22;34261;55.678;12.464;2022-10-15T06:11:12;14.80;99.90
48454;DHT22;34261;55.678;12.464;2022-10-15T06:13:38;14.70;99.90
48454;DHT22;34261;55.678;12.464;2022-10-15T06:16:04;14.70;99.90
48454;DHT22;34261;55.678;12.464;2022-10-15T06:18:30;14.80;99.90
48454;DHT22;34261;55.678;12.464;2022-10-15T06:20:55;14.80;99.90
48454;DHT22;34261;55.678;12.464;2022-10-15T06:23:21;14.80;99.90
48454;DHT22;34261;55.678;12.464;2022-10-15T06:25:48;14.80;99.90
48454;DHT22;34261;55.678;12.464;2022-10-15T06:28:14;14.80;99.90
48454;DHT22;34261;55.678;12.464;2022-10-15T06:30:39;14.80;99.90
48454;DHT22;34261;55.678;12.464;2022-10-15T06:33:05;14.80;99.90
48454;DHT22;34261;55.678;12.464;2022-10-15T06:35:30;14.80;99.90
48454;DHT22;34261;55.678;12.464;2022-10-15T06:38:02;14.90;99.90
48454;DHT22;34261;55.678;12.464;2022-10-15T06:40:27;14.80;99.90
48454;DHT22;34261;55.678;12.464;2022-10-15T06:42:53;14.80;99.90
48454;DHT22;34261;55.678;12.464;2022-10-15T06:45:18;14.80;99.90
48454;DHT22;34261;55.678;12.464;2022-10-15T06:47:44;14.80;99.90
48454;DHT22;34261;55.678;12.464;2022-10-15T06:50:10;14.80;99.90
48454;DHT22;34261;55.678;12.464;2022-10-15T06:52:38;14.80;99.90
48454;DHT22;34261;55.678;12.464;2022-10-15T06:55:03;14.80;99.90
48454;DHT22;34261;55.678;12.464;2022-10-15T06:57:29;14.80;99.90
48454;DHT22;34261;55.678;12.464;2022-10-15T06:59:55;14.90;99.90
48454;DHT22;34261;55.678;12.464;2022-10-15T07:02:20;14.80;99.90
48454;DHT22;34261;55.678;12.464;2022-10-15T07:04:46;14.80;99.90
48454;DHT22;34261;55.678;12.464;2022-10-15T07:07:11;14.90;99.90
48454;DHT22;34261;55.678;12.464;2022-10-15T07:09:37;14.90;99.90
48454;DHT22;34261;55.678;12.464;2022-10-15T07:12:03;14.90;99.90
48454;DHT22;34261;55.678;12.464;2022-10-15T07:14:28;14.90;99.90
48454;DHT22;34261;55.678;12.464;2022-10-15T07:16:54;15.00;99.90
48454;DHT22;34261;55.678;12.464;2022-10-15T07:19:19;15.00;99.90
48454;DHT22;34261;55.678;12.464;2022-10-15T07:21:45;15.00;99.90
48454;DHT22;34261;55.678;12.464;2022-10-15T07:24:12;14.90;99.90
48454;DHT22;34261;55.678;12.464;2022-10-15T07:26:37;14.90;99.90
48454;DHT22;34261;55.678;12.464;2022-10-15T07:29:03;14.90;99.90
48454;DHT22;34261;55.678;12.464;2022-10-15T07:31:29;15.00;99.90
48454;DHT22;34261;55.678;12.464;2022-10-15T07:33:55;15.00;99.90
48454;DHT22;34261;55.678;12.464;2022-10-15T07:36:21;15.10;99.90
48454;DHT22;34261;55.678;12.464;2022-10-15T07:38:46;15.20;99.90
48454;DHT22;34261;55.678;12.464;2022-10-15T07:41:12;15.10;99.90
48454;DHT22;34261;55.678;12.464;2022-10-15T07:43:37;15.10;99.90
48454;DHT22;34261;55.678;12.464;2022-10-15T07:46:03;15.10;99.90
48454;DHT22;34261;55.678;12.464;2022-10-15T07:48:29;15.20;99.90
48454;DHT22;34261;55.678;12.464;2022-10-15T07:50:55;15.20;99.90
48454;DHT22;34261;55.678;12.464;2022-10-15T07:53:22;15.20;99.90
48454;DHT22;34261;55.678;12.464;2022-10-15T07:55:48;15.20;99.90
48454;DHT22;34261;55.678;12.464;2022-10-15T07:58:16;15.20;99.90
48454;DHT22;34261;55.678;12.464;2022-10-15T08:00:42;15.20;99.90
48454;DHT22;34261;55.678;12.464;2022-10-15T08:03:07;15.20;99.90
48454;DHT22;34261;55.678;12.464;2022-10-15T08:05:33;15.20;99.90
48454;DHT22;34261;55.678;12.464;2022-10-15T08:07:58;15.10;99.90
48454;DHT22;34261;55.678;12.464;2022-10-15T08:10:24;15.20;99.90
48454;DHT22;34261;55.678;12.464;2022-10-15T08:12:50;15.30;99.90
48454;DHT22;34261;55.678;12.464;2022-10-15T08:15:15;15.50;99.90
48454;DHT22;34261;55.678;12.464;2022-10-15T08:17:41;15.70;99.90
48454;DHT22;34261;55.678;12.464;2022-10-15T08:20:06;15.70;99.90
48454;DHT22;34261;55.678;12.464;2022-10-15T08:22:32;15.80;99.90
48454;DHT22;34261;55.678;12.464;2022-10-15T08:24:58;15.90;99.90
48454;DHT22;34261;55.678;12.464;2022-10-15T08:27:23;15.90;99.90
48454;DHT22;34261;55.678;12.464;2022-10-15T08:29:49;15.90;99.90
48454;DHT22;34261;55.678;12.464;2022-10-15T08:32:14;15.90;99.90
48454;DHT22;34261;55.678;12.464;2022-10-15T08:34:39;15.90;99.90
48454;DHT22;34261;55.678;12.464;2022-10-15T08:37:05;16.00;99.90
48454;DHT22;34261;55.678;12.464;2022-10-15T08:39:30;16.20;99.90
48454;DHT22;34261;55.678;12.464;2022-10-15T08:41:57;16.30;99.90
48454;DHT22;34261;55.678;12.464;2022-10-15T08:44:30;16.30;99.90
48454;DHT22;34261;55.678;12.464;2022-10-15T08:47:07;16.30;99.90
48454;DHT22;34261;55.678;12.464;2022-10-15T08:52:24;16.30;99.90
48454;DHT22;34261;55.678;12.464;2022-10-15T08:54:48;16.20;99.90
48454;DHT22;34261;55.678;12.464;2022-10-15T08:59:45;16.30;99.90
48454;DHT22;34261;55.678;12.464;2022-10-15T09:02:28;16.40;99.90
48454;DHT22;34261;55.678;12.464;2022-10-15T09:07:41;16.50;99.90
48454;DHT22;34261;55.678;12.464;2022-10-15T09:12:52;16.30;99.90
48454;DHT22;34261;55.678;12.464;2022-10-15T09:15:20;16.20;99.90
48454;DHT22;34261;55.678;12.464;2022-10-15T09:17:48;16.10;99.90
48454;DHT22;34261;55.678;12.464;2022-10-15T09:20:35;16.10;99.90
48454;DHT22;34261;55.678;12.464;2022-10-15T09:22:59;16.10;99.90
48454;DHT22;34261;55.678;12.464;2022-10-15T09:25:27;16.10;99.90
48454;DHT22;34261;55.678;12.464;2022-10-15T09:27:55;16.10;99.90
48454;DHT22;34261;55.678;12.464;2022-10-15T09:30:24;16.20;99.90
48454;DHT22;34261;55.678;12.464;2022-10-15T09:32:53;16.20;99.90
48454;DHT22;34261;55.678;12.464;2022-10-15T09:35:21;16.20;99.90
48454;DHT22;34261;55.678;12.464;2022-10-15T09:40:28;16.40;99.90
48454;DHT22;34261;55.678;12.464;2022-10-15T09:42:56;16.30;99.90
48454;DHT22;34261;55.678;12.464;2022-10-15T09:45:22;16.40;99.90
48454;DHT22;34261;55.678;12.464;2022-10-15T09:47:51;16.40;99.90
48454;DHT22;34261;55.678;12.464;2022-10-15T09:50:20;16.50;99.90
48454;DHT22;34261;55.678;12.464;2022-10-15T09:57:58;16.40;99.90
48454;DHT22;34261;55.678;12.464;2022-10-15T10:00:29;16.50;99.90
48454;DHT22;34261;55.678;12.464;2022-10-15T10:03:13;16.50;99.90
48454;DHT22;34261;55.678;12.464;2022-10-15T10:05:38;16.40;99.90
48454;DHT22;34261;55.678;12.464;2022-10-15T10:11:03;16.60;99.90
48454;DHT22;34261;55.678;12.464;2022-10-15T10:13:30;16.70;99.90
48454;DHT22;34261;55.678;12.464;2022-10-15T10:16:00;16.70;99.90
48454;DHT22;34261;55.678;12.464;2022-10-15T10:18:27;16.60;99.90
48454;DHT22;34261;55.678;12.464;2022-10-15T10:23:22;16.70;99.90
48454;DHT22;34261;55.678;12.464;2022-10-15T10:25:48;16.60;99.90
48454;DHT22;34261;55.678;12.464;2022-10-15T10:28:14;16.50;99.90
48454;DHT22;34261;55.678;12.464;2022-10-15T10:33:12;16.50;99.90
48454;DHT22;34261;55.678;12.464;2022-10-15T10:35:43;16.50;99.90
48454;DHT22;34261;55.678;12.464;2022-10-15T10:38:19;16.70;99.90
48454;DHT22;34261;55.678;12.464;2022-10-15T10:40:48;16.70;99.90
48454;DHT22;34261;55.678;12.464;2022-10-15T10:45:51;16.80;99.90
48454;DHT22;34261;55.678;12.464;2022-10-15T10:48:17;17.00;99.90
48454;DHT22;34261;55.678;12.464;2022-10-15T10:50:43;16.90;99.90
48454;DHT22;34261;55.678;12.464;2022-10-15T10:53:12;16.90;99.90
48454;DHT22;34261;55.678;12.464;2022-10-15T10:55:38;16.90;99.90
48454;DHT22;34261;55.678;12.464;2022-10-15T10:58:04;16.90;99.90
48454;DHT22;34261;55.678;12.464;2022-10-15T11:00:36;16.90;99.90
48454;DHT22;34261;55.678;12.464;2022-10-15T11:03:03;16.90;99.90
48454;DHT22;34261;55.678;12.464;2022-10-15T11:05:29;16.90;99.90
48454;DHT22;34261;55.678;12.464;2022-10-15T11:07:59;16.80;99.90
48454;DHT22;34261;55.678;12.464;2022-10-15T11:15:29;16.70;99.90
48454;DHT22;34261;55.678;12.464;2022-10-15T11:31:05;16.30;99.90
48454;DHT22;34261;55.678;12.464;2022-10-15T11:33:36;16.30;99.90
48454;DHT22;34261;55.678;12.464;2022-10-15T11:36:28;16.40;99.90
48454;DHT22;34261;55.678;12.464;2022-10-15T11:39:02;16.50;99.90
48454;DHT22;34261;55.678;12.464;2022-10-15T11:47:05;16.50;99.90
48454;DHT22;34261;55.678;12.464;2022-10-15T11:49:45;16.50;99.90
48454;DHT22;34261;55.678;12.464;2022-10-15T11:52:15;16.60;99.90
48454;DHT22;34261;55.678;12.464;2022-10-15T11:57:14;16.50;99.90
48454;DHT22;34261;55.678;12.464;2022-10-15T11:59:44;16.50;99.90
48454;DHT22;34261;55.678;12.464;2022-10-15T12:02:16;16.50;99.90
48454;DHT22;34261;55.678;12.464;2022-10-15T12:04:52;16.60;99.90
48454;DHT22;34261;55.678;12.464;2022-10-15T12:07:27;16.50;99.90
48454;DHT22;34261;55.678;12.464;2022-10-15T12:10:06;16.60;99.90
48454;DHT22;34261;55.678;12.464;2022-10-15T12:12:38;16.70;99.90
48454;DHT22;34261;55.678;12.464;2022-10-15T12:20:16;16.60;99.90
48454;DHT22;34261;55.678;12.464;2022-10-15T12:28:12;16.50;99.90
48454;DHT22;34261;55.678;12.464;2022-10-15T12:30:39;16.50;99.90
48454;DHT22;34261;55.678;12.464;2022-10-15T12:35:52;16.50;99.90
48454;DHT22;34261;55.678;12.464;2022-10-15T12:38:20;16.50;99.90
48454;DHT22;34261;55.678;12.464;2022-10-15T12:40:46;16.50;99.90
48454;DHT22;34261;55.678;12.464;2022-10-15T12:43:19;16.60;99.90
48454;DHT22;34261;55.678;12.464;2022-10-15T12:45:49;16.70;99.90
48454;DHT22;34261;55.678;12.464;2022-10-15T12:48:17;16.70;99.90
48454;DHT22;34261;55.678;12.464;2022-10-15T12:50:44;16.80;99.90
48454;DHT22;34261;55.678;12.464;2022-10-15T12:58:41;16.80;99.90
48454;DHT22;34261;55.678;12.464;2022-10-15T13:08:47;17.20;99.90
48454;DHT22;34261;55.678;12.464;2022-10-15T13:11:23;17.20;99.90
48454;DHT22;34261;55.678;12.464;2022-10-15T13:13:50;17.30;99.90
48454;DHT22;34261;55.678;12.464;2022-10-15T13:16:17;17.80;99.90
48454;DHT22;34261;55.678;12.464;2022-10-15T13:18:47;18.00;99.90
48454;DHT22;34261;55.678;12.464;2022-10-15T13:21:13;17.90;99.90
48454;DHT22;34261;55.678;12.464;2022-10-15T13:23:43;17.70;99.90
48454;DHT22;34261;55.678;12.464;2022-10-15T13:26:09;17.60;99.90
48454;DHT22;34261;55.678;12.464;2022-10-15T13:28:36;17.60;99.90
48454;DHT22;34261;55.678;12.464;2022-10-15T13:31:04;17.40;99.90
48454;DHT22;34261;55.678;12.464;2022-10-15T13:33:30;17.30;99.90
48454;DHT22;34261;55.678;12.464;2022-10-15T13:36:03;17.30;99.90
48454;DHT22;34261;55.678;12.464;2022-10-15T13:38:28;17.20;99.90
48454;DHT22;34261;55.678;12.464;2022-10-15T13:40:54;17.20;99.90
48454;DHT22;34261;55.678;12.464;2022-10-15T13:43:24;17.10;99.90
48454;DHT22;34261;55.678;12.464;2022-10-15T13:45:54;17.20;99.90
48454;DHT22;34261;55.678;12.464;2022-10-15T13:48:21;17.20;99.90
48454;DHT22;34261;55.678;12.464;2022-10-15T13:50:48;17.20;99.90
48454;DHT22;34261;55.678;12.464;2022-10-15T13:53:31;17.10;99.90
48454;DHT22;34261;55.678;12.464;2022-10-15T13:55:58;17.10;99.90
48454;DHT22;34261;55.678;12.464;2022-10-15T14:00:52;17.20;99.90
48454;DHT22;34261;55.678;12.464;2022-10-15T14:03:19;17.10;99.90
48454;DHT22;34261;55.678;12.464;2022-10-15T14:05:46;17.20;99.90
48454;DHT22;34261;55.678;12.464;2022-10-15T14:08:17;17.20;99.90
48454;DHT22;34261;55.678;12.464;2022-10-15T14:10:43;17.30;99.90
48454;DHT22;34261;55.678;12.464;2022-10-15T14:13:11;17.20;99.90
48454;DHT22;34261;55.678;12.464;2022-10-15T14:15:47;17.30;99.90
48454;DHT22;34261;55.678;12.464;2022-10-15T14:18:14;17.30;99.90
48454;DHT22;34261;55.678;12.464;2022-10-15T14:20:42;17.50;99.90
48454;DHT22;34261;55.678;12.464;2022-10-15T14:23:13;17.60;99.90
48454;DHT22;34261;55.678;12.464;2022-10-15T14:25:39;17.70;99.90
48454;DHT22;34261;55.678;12.464;2022-10-15T14:28:05;17.60;99.90
48454;DHT22;34261;55.678;12.464;2022-10-15T14:30:40;17.40;99.90
48454;DHT22;34261;55.678;12.464;2022-10-15T14:33:42;17.30;99.90
48454;DHT22;34261;55.678;12.464;2022-10-15T14:38:28;17.00;99.90
48454;DHT22;34261;55.678;12.464;2022-10-15T14:41:02;16.90;99.90
48454;DHT22;34261;55.678;12.464;2022-10-15T14:43:34;16.80;99.90
48454;DHT22;34261;55.678;12.464;2022-10-15T14:46:00;16.70;99.90
48454;DHT22;34261;55.678;12.464;2022-10-15T14:48:27;16.60;99.90
48454;DHT22;34261;55.678;12.464;2022-10-15T14:50:58;16.60;99.90
48454;DHT22;34261;55.678;12.464;2022-10-15T14:53:25;16.50;99.90
48454;DHT22;34261;55.678;12.464;2022-10-15T14:55:52;16.50;99.90
48454;DHT22;34261;55.678;12.464;2022-10-15T14:58:20;16.50;99.90
48454;DHT22;34261;55.678;12.464;2022-10-15T15:00:47;16.50;99.90
48454;DHT22;34261;55.678;12.464;2022-10-15T15:03:17;16.50;99.90
48454;DHT22;34261;55.678;12.464;2022-10-15T15:05:46;16.50;99.90
48454;DHT22;34261;55.678;12.464;2022-10-15T15:08:12;16.40;99.90
48454;DHT22;34261;55.678;12.464;2022-10-15T15:10:38;16.40;99.90
48454;DHT22;34261;55.678;12.464;2022-10-15T15:13:04;16.40;99.90
48454;DHT22;34261;55.678;12.464;2022-10-15T15:15:29;16.40;99.90
48454;DHT22;34261;55.678;12.464;2022-10-15T15:17:54;16.40;99.90
48454;DHT22;34261;55.678;12.464;2022-10-15T15:20:20;16.40;99.90
48454;DHT22;34261;55.678;12.464;2022-10-15T15:22:50;16.40;99.90
48454;DHT22;34261;55.678;12.464;2022-10-15T15:25:24;16.40;99.90
48454;DHT22;34261;55.678;12.464;2022-10-15T15:27:51;16.40;99.90
48454;DHT22;34261;55.678;12.464;2022-10-15T15:30:18;16.40;99.90
48454;DHT22;34261;55.678;12.464;2022-10-15T15:32:44;16.30;99.90
48454;DHT22;34261;55.678;12.464;2022-10-15T15:37:39;16.30;99.90
48454;DHT22;34261;55.678;12.464;2022-10-15T15:40:04;16.20;99.90
48454;DHT22;34261;55.678;12.464;2022-10-15T15:42:30;16.20;99.90
48454;DHT22;34261;55.678;12.464;2022-10-15T15:44:55;16.30;99.90
48454;DHT22;34261;55.678;12.464;2022-10-15T15:47:21;16.20;99.90
48454;DHT22;34261;55.678;12.464;2022-10-15T15:49:46;16.20;99.90
48454;DHT22;34261;55.678;12.464;2022-10-15T15:52:12;16.20;99.90
48454;DHT22;34261;55.678;12.464;2022-10-15T15:54:38;16.20;99.90
48454;DHT22;34261;55.678;12.464;2022-10-15T15:57:04;16.20;99.90
48454;DHT22;34261;55.678;12.464;2022-10-15T15:59:29;16.20;99.90
48454;DHT22;34261;55.678;12.464;2022-10-15T16:01:55;16.20;99.90
48454;DHT22;34261;55.678;12.464;2022-10-15T16:04:20;16.20;99.90
48454;DHT22;34261;55.678;12.464;2022-10-15T16:06:46;16.10;99.90
48454;DHT22;34261;55.678;12.464;2022-10-15T16:09:14;16.10;99.90
48454;DHT22;34261;55.678;12.464;2022-10-15T16:11:39;16.10;99.90
48454;DHT22;34261;55.678;12.464;2022-10-15T16:14:05;16.10;99.90
48454;DHT22;34261;55.678;12.464;2022-10-15T16:16:30;16.10;99.90
48454;DHT22;34261;55.678;12.464;2022-10-15T16:18:56;16.10;99.90
48454;DHT22;34261;55.678;12.464;2022-10-15T16:21:22;16.10;99.90
48454;DHT22;34261;55.678;12.464;2022-10-15T16:23:48;16.00;99.90
48454;DHT22;34261;55.678;12.464;2022-10-15T16:26:13;16.00;99.90
48454;DHT22;34261;55.678;12.464;2022-10-15T16:28:39;16.00;99.90
48454;DHT22;34261;55.678;12.464;2022-10-15T16:31:14;16.00;99.90
48454;DHT22;34261;55.678;12.464;2022-10-15T16:33:40;16.00;99.90
48454;DHT22;34261;55.678;12.464;2022-10-15T16:36:05;16.00;99.90
48454;DHT22;34261;55.678;12.464;2022-10-15T16:38:31;16.00;99.90
48454;DHT22;34261;55.678;12.464;2022-10-15T16:40:56;16.00;99.90
48454;DHT22;34261;55.678;12.464;2022-10-15T16:43:22;15.90;99.90
48454;DHT22;34261;55.678;12.464;2022-10-15T16:45:57;15.90;99.90
48454;DHT22;34261;55.678;12.464;2022-10-15T16:48:23;15.90;99.90
48454;DHT22;34261;55.678;12.464;2022-10-15T16:50:58;15.80;99.90
48454;DHT22;34261;55.678;12.464;2022-10-15T16:53:24;15.80;99.90
48454;DHT22;34261;55.678;12.464;2022-10-15T16:55:50;15.80;99.90
48454;DHT22;34261;55.678;12.464;2022-10-15T16:58:15;15.80;99.90
48454;DHT22;34261;55.678;12.464;2022-10-15T17:00:42;15.80;99.90
48454;DHT22;34261;55.678;12.464;2022-10-15T17:03:08;15.80;99.90
48454;DHT22;34261;55.678;12.464;2022-10-15T17:05:34;15.70;99.90
48454;DHT22;34261;55.678;12.464;2022-10-15T17:08:00;15.70;99.90
48454;DHT22;34261;55.678;12.464;2022-10-15T17:10:25;15.60;99.90
48454;DHT22;34261;55.678;12.464;2022-10-15T17:12:51;15.50;99.90